createdAt,value
2022-10-29T00:00:51.019Z,18.00
2022-10-29T00:03:19.223Z,17.91
2022-10-29T00:05:58.013Z,17.91
2022-10-29T00:08:26.647Z,18.10
2022-10-29T00:10:54.635Z,17.96
2022-10-29T00:13:23.016Z,18.00
2022-10-29T00:15:51.961Z,18.07
2022-10-29T00:18:19.881Z,17.98
2022-10-29T00:20:48.497Z,18.02
2022-10-29T00:23:17.752Z,17.76
2022-10-29T00:25:45.754Z,17.78
2022-10-29T00:28:13.630Z,17.61
2022-10-29T00:30:41.531Z,17.70
2022-10-29T00:33:09.480Z,17.75
2022-10-29T00:35:37.407Z,17.74
2022-10-29T00:38:08.208Z,17.78
2022-10-29T00:40:39.344Z,17.84
2022-10-29T00:43:14.694Z,17.50
2022-10-29T00:45:47.555Z,17.57
2022-10-29T00:48:15.575Z,17.46
2022-10-29T00:50:44.369Z,17.39
2022-10-29T00:53:12.478Z,17.50
2022-10-29T00:55:42.124Z,17.52
2022-10-29T00:58:11.792Z,17.62
2022-10-29T01:00:39.959Z,17.46
2022-10-29T01:03:08.311Z,17.53
2022-10-29T01:05:37.000Z,17.56
2022-10-29T01:08:05.753Z,17.05
2022-10-29T01:10:49.836Z,17.22
2022-10-29T01:13:34.046Z,17.38
2022-10-29T01:16:15.215Z,17.43
2022-10-29T01:18:51.392Z,17.23
2022-10-29T01:21:40.604Z,17.25
2022-10-29T01:25:02.156Z,17.06
2022-10-29T01:27:47.301Z,17.04
2022-10-29T01:30:22.920Z,16.76
2022-10-29T01:33:02.885Z,16.71
2022-10-29T01:35:41.666Z,17.02
2022-10-29T01:38:18.439Z,17.27
2022-10-29T01:40:56.206Z,17.47
2022-10-29T01:43:29.507Z,17.42
2022-10-29T01:46:05.270Z,17.17
2022-10-29T01:48:38.876Z,17.02
2022-10-29T01:51:13.268Z,17.17
2022-10-29T01:53:42.231Z,16.89
2022-10-29T01:56:10.163Z,16.88
2022-10-29T01:58:39.795Z,17.01
2022-10-29T02:01:16.977Z,17.07
2022-10-29T02:03:57.644Z,17.10
2022-10-29T02:06:34.992Z,16.84
2022-10-29T02:09:08.760Z,16.52
2022-10-29T02:11:45.676Z,16.66
2022-10-29T02:14:20.330Z,16.69
2022-10-29T02:16:49.538Z,16.35
2022-10-29T02:19:18.837Z,16.36
2022-10-29T02:21:48.841Z,16.69
2022-10-29T02:24:16.767Z,16.90
2022-10-29T02:26:46.245Z,16.99
2022-10-29T02:29:14.147Z,16.65
2022-10-29T02:31:42.068Z,16.36
2022-10-29T02:34:10.096Z,16.56
2022-10-29T02:36:39.406Z,16.71
2022-10-29T02:39:07.299Z,16.42
2022-10-29T02:41:35.229Z,16.41
2022-10-29T02:44:03.139Z,16.54
2022-10-29T02:46:31.544Z,16.84
2022-10-29T02:48:59.523Z,17.04
2022-10-29T02:51:27.409Z,17.15
2022-10-29T02:53:56.797Z,17.31
2022-10-29T02:56:24.868Z,17.28
2022-10-29T02:58:53.154Z,17.42
2022-10-29T03:01:21.146Z,17.41
2022-10-29T03:03:49.245Z,17.40
2022-10-29T03:06:18.829Z,17.19
2022-10-29T03:08:47.256Z,16.39
2022-10-29T03:11:16.826Z,16.54
2022-10-29T03:13:44.849Z,16.58
2022-10-29T03:16:12.758Z,16.80
2022-10-29T03:18:40.702Z,17.07
2022-10-29T03:21:08.833Z,17.24
2022-10-29T03:23:36.737Z,17.18
2022-10-29T03:26:05.164Z,16.31
2022-10-29T03:28:35.058Z,16.70
2022-10-29T03:31:03.146Z,16.92
2022-10-29T03:33:31.048Z,16.76
2022-10-29T03:35:59.879Z,16.97
2022-10-29T03:38:28.431Z,17.12
2022-10-29T03:40:56.637Z,17.22
2022-10-29T03:43:24.927Z,16.75
2022-10-29T03:45:55.002Z,16.61
2022-10-29T03:48:23.431Z,16.92
2022-10-29T03:50:57.997Z,17.09
2022-10-29T03:53:26.903Z,16.87
2022-10-29T03:55:55.687Z,16.50
2022-10-29T03:58:24.284Z,16.69
2022-10-29T04:00:57.939Z,16.57
2022-10-29T04:03:26.683Z,16.76
2022-10-29T04:05:54.711Z,16.89
2022-10-29T04:08:22.938Z,16.66
2022-10-29T04:10:52.052Z,16.70
2022-10-29T04:13:20.706Z,16.83
2022-10-29T04:15:49.003Z,16.92
2022-10-29T04:18:18.406Z,16.88
2022-10-29T04:22:03.249Z,16.94
2022-10-29T04:29:13.089Z,16.89
2022-10-29T04:31:41.164Z,16.79
2022-10-29T04:34:10.443Z,16.68
2022-10-29T04:36:38.348Z,16.76
2022-10-29T04:39:06.395Z,16.85
2022-10-29T04:41:34.996Z,16.73
2022-10-29T04:44:02.963Z,16.67
2022-10-29T04:46:30.956Z,16.74
2022-10-29T04:48:58.941Z,16.75
2022-10-29T04:51:28.800Z,16.83
2022-10-29T04:53:56.724Z,16.88
2022-10-29T04:56:24.671Z,16.95
2022-10-29T04:58:53.634Z,16.98
2022-10-29T05:01:21.669Z,17.05
2022-10-29T05:03:49.616Z,16.98
2022-10-29T05:06:17.532Z,16.79
2022-10-29T05:08:46.803Z,16.82
2022-10-29T05:11:14.753Z,16.85
2022-10-29T05:13:45.235Z,16.67
2022-10-29T05:16:13.265Z,16.80
2022-10-29T05:18:41.151Z,16.83
2022-10-29T05:21:09.148Z,16.88
2022-10-29T05:23:37.151Z,16.76
2022-10-29T05:26:06.564Z,16.86
2022-10-29T05:28:34.466Z,16.88
2022-10-29T05:31:03.172Z,16.94
2022-10-29T05:33:31.176Z,16.77
2022-10-29T05:36:00.983Z,16.43
2022-10-29T05:38:28.870Z,16.13
2022-10-29T05:40:59.394Z,16.38
2022-10-29T05:43:29.082Z,16.42
2022-10-29T05:45:57.002Z,16.52
2022-10-29T05:48:24.962Z,16.48
2022-10-29T05:50:52.872Z,16.41
2022-10-29T05:53:20.781Z,16.49
2022-10-29T05:55:48.724Z,16.45
2022-10-29T05:58:16.709Z,16.53
2022-10-29T06:00:46.694Z,16.51
2022-10-29T06:03:16.329Z,16.42
2022-10-29T06:05:44.755Z,16.51
2022-10-29T06:08:12.689Z,16.38
2022-10-29T06:10:40.635Z,15.85
2022-10-29T06:13:13.049Z,16.06
2022-10-29T06:15:41.331Z,16.17
2022-10-29T06:18:10.993Z,16.18
2022-10-29T06:20:43.652Z,16.23
2022-10-29T06:23:12.441Z,16.17
2022-10-29T06:25:40.526Z,15.70
2022-10-29T06:28:12.074Z,15.56
2022-10-29T06:30:40.050Z,15.58
2022-10-29T06:33:08.301Z,15.89
2022-10-29T06:35:37.604Z,16.07
2022-10-29T06:38:09.304Z,16.20
2022-10-29T06:40:40.275Z,16.27
2022-10-29T06:43:11.558Z,16.31
2022-10-29T06:45:39.521Z,16.37
2022-10-29T06:48:08.192Z,16.35
2022-10-29T06:50:37.644Z,16.43
2022-10-29T06:53:07.146Z,16.30
2022-10-29T06:55:35.825Z,16.44
2022-10-29T06:58:06.636Z,16.54
2022-10-29T07:00:35.862Z,16.41
2022-10-29T07:03:05.033Z,16.45
2022-10-29T07:05:33.587Z,16.47
2022-10-29T07:08:03.330Z,16.30
2022-10-29T07:10:33.298Z,16.48
2022-10-29T07:13:01.526Z,16.52
2022-10-29T07:15:31.040Z,16.72
2022-10-29T07:18:00.329Z,16.67
2022-10-29T07:20:31.668Z,16.77
2022-10-29T07:23:00.412Z,16.91
2022-10-29T07:25:30.412Z,17.19
2022-10-29T07:28:04.249Z,17.10
2022-10-29T07:30:32.303Z,17.09
2022-10-29T07:33:00.175Z,17.07
2022-10-29T07:35:28.086Z,17.10
2022-10-29T07:38:03.791Z,17.16
2022-10-29T07:40:39.224Z,17.29
2022-10-29T07:43:07.397Z,17.48
2022-10-29T07:45:35.440Z,17.53
2022-10-29T07:48:04.695Z,17.62
2022-10-29T07:50:33.278Z,17.92
2022-10-29T07:53:01.637Z,18.13
2022-10-29T07:58:06.477Z,18.48
2022-10-29T08:00:35.673Z,18.51
2022-10-29T08:03:03.778Z,18.76
2022-10-29T08:05:32.496Z,18.86
2022-10-29T08:08:00.973Z,18.67
2022-10-29T08:10:29.438Z,18.40
2022-10-29T08:12:59.895Z,18.55
2022-10-29T08:15:31.211Z,18.85
2022-10-29T08:17:59.212Z,19.08
2022-10-29T08:20:29.337Z,19.39
2022-10-29T08:23:00.991Z,19.55
2022-10-29T08:25:29.552Z,19.80
2022-10-29T08:28:02.666Z,19.95
2022-10-29T08:30:32.998Z,20.07
2022-10-29T08:33:01.368Z,20.21
2022-10-29T08:35:30.741Z,20.34
2022-10-29T08:37:59.036Z,20.44
2022-10-29T08:40:31.716Z,20.46
2022-10-29T08:43:40.104Z,20.56
2022-10-29T08:46:21.997Z,20.54
2022-10-29T08:48:54.826Z,20.46
2022-10-29T08:51:30.017Z,20.29
2022-10-29T08:56:51.439Z,20.34
2022-10-29T08:59:21.903Z,20.59
2022-10-29T09:01:52.890Z,20.68
2022-10-29T09:04:26.437Z,20.87
2022-10-29T09:07:15.143Z,21.11
2022-10-29T09:09:47.512Z,21.34
2022-10-29T09:12:34.143Z,20.47
2022-10-29T09:15:26.358Z,20.35
2022-10-29T09:18:13.827Z,20.61
2022-10-29T09:20:50.381Z,21.13
2022-10-29T09:23:28.831Z,21.70
2022-10-29T09:26:03.198Z,22.20
2022-10-29T09:28:44.533Z,22.58
2022-10-29T09:31:24.911Z,22.71
2022-10-29T09:33:59.247Z,22.56
2022-10-29T09:36:31.152Z,22.57
2022-10-29T09:39:02.571Z,22.19
2022-10-29T09:41:33.638Z,22.31
2022-10-29T09:44:07.154Z,22.56
2022-10-29T09:46:42.134Z,22.86
2022-10-29T09:49:27.778Z,23.07
2022-10-29T09:52:02.236Z,23.04
2022-10-29T09:54:31.695Z,23.02
2022-10-29T09:57:02.144Z,22.95
2022-10-29T09:59:33.324Z,22.52
2022-10-29T10:02:01.632Z,22.64
2022-10-29T10:04:35.503Z,22.98
2022-10-29T10:07:07.241Z,23.08
2022-10-29T10:09:53.029Z,23.09
2022-10-29T10:12:23.572Z,23.30
2022-10-29T10:15:03.407Z,23.40
2022-10-29T10:18:00.725Z,23.50
2022-10-29T10:20:36.751Z,23.49
2022-10-29T10:23:21.886Z,23.46
2022-10-29T10:25:50.617Z,23.56
2022-10-29T10:28:20.476Z,23.47
2022-10-29T10:31:15.300Z,23.54
2022-10-29T10:33:51.222Z,23.59
2022-10-29T10:36:23.474Z,23.75
2022-10-29T10:38:53.999Z,23.51
2022-10-29T10:41:29.354Z,23.57
2022-10-29T10:44:01.487Z,23.63
2022-10-29T10:46:33.548Z,23.62
2022-10-29T10:49:06.350Z,23.80
2022-10-29T10:51:38.962Z,23.99
2022-10-29T10:54:27.942Z,24.06
2022-10-29T10:56:59.381Z,24.19
2022-10-29T10:59:38.537Z,24.23
2022-10-29T11:02:16.244Z,24.30
2022-10-29T11:04:45.376Z,24.47
2022-10-29T11:07:16.455Z,24.70
2022-10-29T11:09:47.902Z,24.78
2022-10-29T11:12:26.675Z,24.78
2022-10-29T11:15:00.220Z,24.76
2022-10-29T11:17:32.119Z,24.82
2022-10-29T11:20:04.454Z,24.83
2022-10-29T11:22:40.528Z,24.81
2022-10-29T11:25:18.839Z,24.76
2022-10-29T11:27:52.949Z,24.71
2022-10-29T11:30:21.756Z,24.86
2022-10-29T11:33:03.920Z,24.71
2022-10-29T11:35:41.719Z,24.61
2022-10-29T11:38:17.794Z,24.57
2022-10-29T11:40:51.932Z,24.69
2022-10-29T11:43:21.894Z,24.74
2022-10-29T11:46:00.560Z,24.80
2022-10-29T11:48:41.982Z,24.78
2022-10-29T11:51:19.890Z,24.84
2022-10-29T11:53:57.681Z,24.82
2022-10-29T11:56:42.557Z,24.90
2022-10-29T11:59:18.253Z,24.94
2022-10-29T12:01:54.356Z,25.02
2022-10-29T12:04:28.289Z,25.08
2022-10-29T12:07:22.978Z,25.11
2022-10-29T12:10:09.481Z,25.10
2022-10-29T12:12:44.557Z,25.17
2022-10-29T12:15:23.745Z,25.18
2022-10-29T12:18:02.520Z,25.06
2022-10-29T12:20:40.970Z,25.04
2022-10-29T12:23:25.131Z,24.93
2022-10-29T12:26:04.616Z,24.93
2022-10-29T12:28:44.784Z,24.94
2022-10-29T12:31:24.392Z,24.92
2022-10-29T12:34:01.732Z,24.88
2022-10-29T12:36:37.940Z,24.44
2022-10-29T12:39:18.703Z,24.79
2022-10-29T12:41:52.637Z,24.93
2022-10-29T12:44:27.671Z,24.90
2022-10-29T12:47:03.787Z,25.01
2022-10-29T12:49:48.008Z,25.09
2022-10-29T12:52:24.020Z,25.17
2022-10-29T12:54:53.823Z,25.20
2022-10-29T12:57:31.129Z,25.14
2022-10-29T13:00:19.346Z,25.19
2022-10-29T13:02:47.459Z,25.20
2022-10-29T13:05:35.991Z,25.12
2022-10-29T13:08:28.267Z,25.04
2022-10-29T13:10:57.509Z,24.99
2022-10-29T13:13:42.081Z,24.91
2022-10-29T13:16:17.071Z,24.78
2022-10-29T13:18:53.276Z,24.75
2022-10-29T13:21:56.337Z,24.71
2022-10-29T13:24:24.759Z,24.56
2022-10-29T13:27:04.514Z,24.49
2022-10-29T13:29:49.047Z,24.51
2022-10-29T13:32:36.884Z,24.43
2022-10-29T13:35:26.625Z,24.49
2022-10-29T13:37:55.422Z,24.50
2022-10-29T13:41:02.480Z,24.46
2022-10-29T13:43:32.776Z,24.52
2022-10-29T13:46:45.465Z,24.52
2022-10-29T13:49:19.018Z,24.59
2022-10-29T13:51:54.395Z,24.61
2022-10-29T13:54:36.734Z,24.60
2022-10-29T13:57:09.890Z,24.64
2022-10-29T13:59:42.354Z,24.61
2022-10-29T14:02:36.879Z,24.50
2022-10-29T14:05:13.831Z,24.50
2022-10-29T14:07:49.175Z,24.41
2022-10-29T14:10:21.325Z,24.48
2022-10-29T14:12:55.634Z,24.55
2022-10-29T14:15:23.928Z,24.63
2022-10-29T14:17:53.306Z,24.33
2022-10-29T14:20:24.418Z,24.40
2022-10-29T14:22:52.427Z,24.38
2022-10-29T14:25:33.303Z,24.37
2022-10-29T14:28:17.477Z,24.37
2022-10-29T14:30:45.839Z,24.29
2022-10-29T14:33:24.543Z,24.32
2022-10-29T14:35:56.292Z,24.28
2022-10-29T14:38:33.684Z,24.28
2022-10-29T14:41:02.082Z,24.23
2022-10-29T14:43:30.884Z,24.17
2022-10-29T14:46:12.027Z,24.08
2022-10-29T14:48:54.804Z,24.08
2022-10-29T14:51:23.796Z,23.95
2022-10-29T14:53:59.361Z,23.86
2022-10-29T14:56:33.427Z,23.78
2022-10-29T14:59:05.198Z,23.05
2022-10-29T15:01:33.347Z,23.14
2022-10-29T15:04:02.696Z,23.25
2022-10-29T15:06:31.629Z,23.31
2022-10-29T15:09:01.401Z,23.31
2022-10-29T15:11:38.092Z,23.28
2022-10-29T15:14:25.348Z,23.18
2022-10-29T15:16:53.285Z,22.75
2022-10-29T15:19:22.927Z,22.79
2022-10-29T15:21:51.295Z,22.84
2022-10-29T15:24:22.993Z,22.83
2022-10-29T15:26:53.838Z,22.82
2022-10-29T15:29:33.364Z,22.78
2022-10-29T15:32:04.209Z,22.72
2022-10-29T15:34:36.274Z,22.67
2022-10-29T15:37:26.142Z,22.44
2022-10-29T15:40:03.170Z,22.47
2022-10-29T15:42:33.246Z,22.29
2022-10-29T15:45:14.659Z,22.33
2022-10-29T15:47:44.739Z,22.31
2022-10-29T15:50:16.393Z,22.12
2022-10-29T15:52:46.574Z,22.05
2022-10-29T15:55:22.096Z,22.02
2022-10-29T15:57:54.179Z,21.87
2022-10-29T16:00:24.609Z,21.81
2022-10-29T16:02:52.860Z,21.71
2022-10-29T16:05:22.174Z,21.47
2022-10-29T16:07:50.140Z,21.18
2022-10-29T16:10:20.442Z,21.36
2022-10-29T16:12:50.215Z,21.37
2022-10-29T16:15:20.813Z,21.39
2022-10-29T16:17:48.912Z,21.35
2022-10-29T16:20:19.470Z,21.29
2022-10-29T16:22:50.359Z,21.17
2022-10-29T16:25:23.169Z,21.12
2022-10-29T16:27:51.519Z,21.07
2022-10-29T16:30:20.489Z,20.92
2022-10-29T16:32:50.295Z,20.72
2022-10-29T16:35:21.426Z,20.74
2022-10-29T16:37:51.925Z,20.65
2022-10-29T16:40:21.042Z,20.58
2022-10-29T16:42:49.944Z,20.51
2022-10-29T16:45:20.839Z,20.42
2022-10-29T16:47:48.877Z,20.31
2022-10-29T16:50:18.315Z,20.20
2022-10-29T16:52:46.255Z,20.02
2022-10-29T16:55:16.085Z,19.90
2022-10-29T16:57:43.983Z,19.94
2022-10-29T17:00:14.159Z,19.86
2022-10-29T17:02:44.691Z,19.82
2022-10-29T17:05:12.753Z,19.67
2022-10-29T17:07:40.853Z,19.70
2022-10-29T17:10:10.231Z,19.66
2022-10-29T17:12:42.812Z,19.61
2022-10-29T17:15:11.396Z,19.57
2022-10-29T17:17:42.381Z,19.58
2022-10-29T17:20:13.347Z,19.56
2022-10-29T17:22:41.239Z,19.48
2022-10-29T17:25:10.592Z,19.44
2022-10-29T17:27:39.603Z,19.41
2022-10-29T17:30:10.701Z,19.36
2022-10-29T17:32:39.146Z,19.27
2022-10-29T17:35:07.794Z,19.22
2022-10-29T17:37:35.727Z,19.13
2022-10-29T17:40:07.933Z,19.13
2022-10-29T17:42:36.665Z,19.08
2022-10-29T17:45:05.228Z,19.04
2022-10-29T17:47:34.551Z,18.62
2022-10-29T17:50:02.540Z,18.59
2022-10-29T17:52:30.498Z,18.56
2022-10-29T17:54:58.399Z,18.54
2022-10-29T17:57:26.301Z,18.19
2022-10-29T17:59:54.203Z,18.18
2022-10-29T18:02:22.270Z,18.27
2022-10-29T18:04:51.639Z,18.20
2022-10-29T18:07:19.525Z,17.93
2022-10-29T18:09:47.438Z,17.97
2022-10-29T18:12:15.390Z,17.97
2022-10-29T18:14:43.287Z,17.98
2022-10-29T18:17:11.188Z,17.60
2022-10-29T18:19:39.575Z,17.73
2022-10-29T18:22:08.925Z,17.77
2022-10-29T18:24:36.849Z,17.65
2022-10-29T18:27:04.895Z,17.77
2022-10-29T18:29:32.836Z,17.72
2022-10-29T18:32:00.770Z,17.63
2022-10-29T18:34:28.744Z,17.68
2022-10-29T18:36:56.672Z,17.52
2022-10-29T18:39:25.972Z,17.57
2022-10-29T18:41:53.910Z,17.69
2022-10-29T18:44:21.909Z,17.62
2022-10-29T18:46:49.976Z,17.68
2022-10-29T18:49:17.874Z,17.59
2022-10-29T18:51:45.784Z,17.50
2022-10-29T18:54:14.909Z,17.35
2022-10-29T18:56:44.268Z,17.63
2022-10-29T18:59:12.796Z,17.57
2022-10-29T19:01:41.159Z,17.50
2022-10-29T19:04:12.318Z,17.42
2022-10-29T19:06:40.215Z,17.52
2022-10-29T19:09:10.373Z,17.42
2022-10-29T19:11:38.301Z,17.39
2022-10-29T19:14:10.457Z,17.45
2022-10-29T19:16:38.387Z,17.46
2022-10-29T19:19:08.940Z,17.50
2022-10-29T19:21:38.458Z,17.40
2022-10-29T19:24:07.834Z,17.26
2022-10-29T19:26:36.867Z,17.19
2022-10-29T19:29:07.766Z,16.91
2022-10-29T19:31:37.098Z,17.07
2022-10-29T19:34:07.183Z,16.98
2022-10-29T19:36:36.705Z,17.04
2022-10-29T19:39:05.091Z,16.91
2022-10-29T19:41:33.474Z,16.94
2022-10-29T19:44:02.080Z,16.88
2022-10-29T19:46:32.093Z,16.96
2022-10-29T19:49:00.827Z,16.96
2022-10-29T19:51:29.067Z,16.77
2022-10-29T19:53:58.021Z,16.76
2022-10-29T19:56:25.991Z,16.76
2022-10-29T19:58:53.910Z,16.70
2022-10-29T20:01:21.893Z,16.74
2022-10-29T20:03:51.296Z,16.82
2022-10-29T20:06:19.197Z,16.58
2022-10-29T20:08:47.129Z,16.07
2022-10-29T20:11:15.078Z,16.29
2022-10-29T20:13:43.066Z,16.02
2022-10-29T20:16:13.238Z,16.25
2022-10-29T20:18:41.164Z,16.36
2022-10-29T20:21:10.660Z,16.48
2022-10-29T20:23:38.950Z,16.45
2022-10-29T20:26:07.724Z,16.51
2022-10-29T20:28:35.889Z,16.33
2022-10-29T20:31:14.923Z,15.87
2022-10-29T20:33:42.966Z,15.95
2022-10-29T20:36:12.286Z,16.09
2022-10-29T20:38:40.236Z,16.10
2022-10-29T20:41:08.435Z,16.07
2022-10-29T20:43:36.476Z,15.89
2022-10-29T20:46:05.205Z,15.79
2022-10-29T20:48:36.196Z,15.87
2022-10-29T20:51:04.615Z,16.03
2022-10-29T20:53:33.883Z,16.04
2022-10-29T20:56:01.877Z,16.08
2022-10-29T20:58:29.812Z,16.02
2022-10-29T21:01:05.692Z,15.92
2022-10-29T21:03:33.894Z,15.93
2022-10-29T21:06:02.883Z,16.00
2022-10-29T21:08:31.596Z,16.03
2022-10-29T21:11:01.722Z,15.99
2022-10-29T21:13:29.687Z,15.83
2022-10-29T21:16:04.623Z,15.73
2022-10-29T21:18:32.570Z,15.72
2022-10-29T21:21:04.199Z,15.61
2022-10-29T21:23:32.857Z,15.45
2022-10-29T21:26:02.156Z,15.02
2022-10-29T21:28:30.241Z,14.91
2022-10-29T21:30:58.143Z,15.12
2022-10-29T21:33:26.152Z,15.21
2022-10-29T21:35:55.090Z,15.29
2022-10-29T21:38:23.951Z,15.17
2022-10-29T21:40:51.972Z,15.15
2022-10-29T21:43:22.448Z,15.24
2022-10-29T21:45:51.673Z,15.23
2022-10-29T21:48:19.978Z,15.11
2022-10-29T21:50:48.318Z,15.23
2022-10-29T21:55:49.084Z,15.18
2022-10-29T21:58:16.995Z,15.09
2022-10-29T22:00:46.358Z,15.06
2022-10-29T22:03:14.259Z,14.63
2022-10-29T22:05:42.161Z,14.71
2022-10-29T22:08:10.310Z,14.79
2022-10-29T22:10:38.245Z,14.92
2022-10-29T22:13:07.979Z,14.95
2022-10-29T22:15:38.275Z,14.85
2022-10-29T22:18:07.595Z,14.97
2022-10-29T22:20:35.447Z,14.89
2022-10-29T22:23:03.345Z,14.93
2022-10-29T22:25:31.257Z,14.94
2022-10-29T22:27:59.171Z,14.79
2022-10-29T22:30:27.342Z,14.88
2022-10-29T22:32:55.279Z,14.97
2022-10-29T22:35:24.632Z,15.05
2022-10-29T22:37:54.500Z,15.01
2022-10-29T22:40:22.483Z,14.90
2022-10-29T22:42:50.392Z,14.91
2022-10-29T22:45:21.194Z,14.93
2022-10-29T22:47:49.087Z,14.94
2022-10-29T22:50:16.993Z,14.98
2022-10-29T22:52:46.260Z,14.94
2022-10-29T22:55:15.770Z,14.79
2022-10-29T22:57:43.691Z,14.69
2022-10-29T23:00:12.901Z,14.40
2022-10-29T23:02:40.834Z,14.20
2022-10-29T23:05:09.235Z,14.24
2022-10-29T23:07:37.138Z,14.27
2022-10-29T23:10:07.400Z,14.21
2022-10-29T23:12:35.549Z,14.14
2022-10-29T23:15:03.526Z,13.92
2022-10-29T23:17:31.462Z,13.90
2022-10-29T23:19:59.355Z,13.97
2022-10-29T23:22:30.028Z,13.88
2022-10-29T23:24:57.922Z,13.72
2022-10-29T23:27:27.187Z,13.85
2022-10-29T23:29:55.095Z,13.82
2022-10-29T23:32:22.968Z,13.89
2022-10-29T23:34:51.071Z,14.00
2022-10-29T23:37:19.458Z,14.08
2022-10-29T23:39:47.429Z,14.24
2022-10-29T23:42:15.381Z,14.08
2022-10-29T23:44:44.696Z,14.14
2022-10-29T23:47:12.593Z,14.28
2022-10-29T23:49:40.542Z,14.31
2022-10-29T23:52:08.518Z,14.07
2022-10-29T23:54:36.559Z,13.98
2022-10-29T23:57:04.475Z,13.99
2022-10-29T23:59:32.389Z,13.85
